Time;durP1;ratioP1;P1;durP2;ratioP2;P2;SDS_P1;SDS_P2;PMS_P1;PMS_P2;Temp;Humidity;BMP_temperature;BMP_pressure;BME280_temperature;BME280_humidity;BME280_pressure;Samples;Min_cycle;Max_cycle;Signal;HPM_P1;HPM_P2
2023/06/01 00:02:25;;;;;;;4.68;3.65;;;;;;;;;;5034384;28;20116;-71
2023/06/01 00:04:52;;;;;;;5.50;3.70;;;;;;;;;;5017299;28;20413;-71
2023/06/01 00:07:17;;;;;;;4.35;3.70;;;;;;;;;;5049847;28;20499;-71
2023/06/01 00:09:43;;;;;;;5.20;3.40;;;;;;;;;;5016694;28;20124;-71
2023/06/01 00:12:08;;;;;;;3.75;3.30;;;;;;;;;;5034643;28;20021;-70
2023/06/01 00:14:34;;;;;;;4.90;4.00;;;;;;;;;;5034679;28;20473;-71
2023/06/01 00:16:59;;;;;;;4.30;3.05;;;;;;;;;;5049696;28;20033;-72
2023/06/01 00:19:25;;;;;;;3.58;3.20;;;;;;;;;;5034472;28;20056;-72
2023/06/01 00:21:53;;;;;;;2.80;2.55;;;;;;;;;;5034508;28;20041;-71
2023/06/01 00:24:18;;;;;;;3.00;2.67;;;;;;;;;;5049569;28;20132;-72
2023/06/01 00:26:44;;;;;;;3.78;3.20;;;;;;;;;;5034013;28;20503;-70
2023/06/01 00:29:09;;;;;;;3.10;2.80;;;;;;;;;;5034258;28;20086;-71
2023/06/01 00:31:35;;;;;;;3.17;2.50;;;;;;;;;;5034172;28;20120;-70
2023/06/01 00:34:00;;;;;;;4.07;2.65;;;;;;;;;;5033619;28;20163;-71
2023/06/01 00:36:25;;;;;;;3.33;2.58;;;;;;;;;;5049364;28;20056;-71
2023/06/01 00:38:51;;;;;;;2.47;2.28;;;;;;;;;;5034009;28;20076;-71
2023/06/01 00:41:16;;;;;;;2.90;2.70;;;;;;;;;;5033877;28;20083;-71
2023/06/01 00:43:41;;;;;;;4.93;2.67;;;;;;;;;;5032637;28;20031;-71
2023/06/01 00:46:07;;;;;;;2.80;2.60;;;;;;;;;;5034120;28;20037;-72
2023/06/01 00:48:32;;;;;;;4.03;2.72;;;;;;;;;;5049140;28;20477;-71
2023/06/01 00:50:58;;;;;;;3.22;2.92;;;;;;;;;;5049007;28;20092;-71
2023/06/01 00:53:24;;;;;;;3.63;2.95;;;;;;;;;;5032459;28;20029;-71
2023/06/01 00:55:50;;;;;;;4.10;3.25;;;;;;;;;;5033718;28;20032;-72
2023/06/01 00:58:15;;;;;;;3.00;2.80;;;;;;;;;;5049137;28;20033;-71
2023/06/01 01:00:41;;;;;;;3.33;3.13;;;;;;;;;;5015809;28;20075;-70
2023/06/01 01:03:09;;;;;;;3.20;2.85;;;;;;;;;;5033908;28;20129;-70
2023/06/01 01:05:38;;;;;;;3.58;3.28;;;;;;;;;;5033900;28;20116;-70
2023/06/01 01:08:14;;;;;;;3.42;2.75;;;;;;;;;;5016299;28;20026;-70
2023/06/01 01:10:52;;;;;;;2.95;2.60;;;;;;;;;;5033103;28;20035;-72
2023/06/01 01:13:27;;;;;;;3.17;2.40;;;;;;;;;;5033904;28;20029;-70
2023/06/01 01:15:55;;;;;;;2.90;2.63;;;;;;;;;;5048822;28;20553;-71
2023/06/01 01:18:41;;;;;;;3.13;2.45;;;;;;;;;;5048844;28;20025;-71
2023/06/01 01:21:22;;;;;;;2.97;2.70;;;;;;;;;;5015942;28;20026;-70
2023/06/01 01:23:48;;;;;;;3.58;2.35;;;;;;;;;;5015764;28;20485;-70
2023/06/01 01:26:23;;;;;;;2.67;2.47;;;;;;;;;;5015514;28;20049;-70
2023/06/01 01:28:51;;;;;;;3.42;3.10;;;;;;;;;;5015752;28;20036;-71
2023/06/01 01:31:18;;;;;;;3.55;2.90;;;;;;;;;;5049456;28;20038;-70
2023/06/01 01:33:45;;;;;;;3.95;2.47;;;;;;;;;;5048959;28;20121;-70
2023/06/01 01:36:12;;;;;;;6.10;4.03;;;;;;;;;;5033772;28;20040;-70
2023/06/01 01:38:37;;;;;;;3.92;3.60;;;;;;;;;;5048955;28;20052;-71
2023/06/01 01:41:03;;;;;;;2.97;2.33;;;;;;;;;;5033857;28;20030;-71
2023/06/01 01:43:29;;;;;;;2.65;2.33;;;;;;;;;;5033189;28;20029;-71
2023/06/01 01:46:15;;;;;;;3.75;2.50;;;;;;;;;;5019381;28;20116;-70
2023/06/01 01:48:46;;;;;;;2.50;2.30;;;;;;;;;;5051827;28;20042;-70
2023/06/01 01:51:32;;;;;;;4.03;2.45;;;;;;;;;;5019345;28;20025;-71
2023/06/01 01:53:58;;;;;;;2.95;2.70;;;;;;;;;;5036623;28;20044;-64
2023/06/01 01:56:26;;;;;;;2.85;2.53;;;;;;;;;;5019482;28;20370;-64
2023/06/01 01:58:52;;;;;;;2.80;2.60;;;;;;;;;;5019693;28;20025;-65
2023/06/01 02:01:18;;;;;;;2.70;2.50;;;;;;;;;;5036891;28;20389;-65
2023/06/01 02:03:44;;;;;;;2.67;2.47;;;;;;;;;;5019821;28;20037;-65
2023/06/01 02:06:09;;;;;;;2.88;2.60;;;;;;;;;;5035579;28;20018;-65
2023/06/01 02:08:34;;;;;;;2.80;2.60;;;;;;;;;;5052176;28;20072;-65
2023/06/01 02:11:00;;;;;;;2.92;2.50;;;;;;;;;;5052090;28;20474;-65
2023/06/01 02:13:25;;;;;;;2.97;2.58;;;;;;;;;;5052159;28;20267;-65
2023/06/01 02:15:51;;;;;;;2.42;2.22;;;;;;;;;;5036455;28;20032;-65
2023/06/01 02:18:17;;;;;;;2.50;2.10;;;;;;;;;;5036499;28;20040;-65
2023/06/01 02:20:45;;;;;;;2.58;2.17;;;;;;;;;;5052777;28;20021;-65
2023/06/01 02:23:11;;;;;;;4.47;2.05;;;;;;;;;;5018800;28;20098;-65
2023/06/01 02:25:37;;;;;;;2.35;2.15;;;;;;;;;;5019286;28;20053;-68
2023/06/01 02:28:02;;;;;;;2.65;2.13;;;;;;;;;;5051797;28;20036;-68
2023/06/01 02:30:28;;;;;;;2.17;1.98;;;;;;;;;;5035037;28;20052;-68
2023/06/01 02:32:53;;;;;;;3.00;2.47;;;;;;;;;;5051797;28;20025;-68
2023/06/01 02:35:19;;;;;;;2.28;2.10;;;;;;;;;;5051639;28;20026;-68
2023/06/01 02:37:45;;;;;;;2.40;2.20;;;;;;;;;;5018774;28;20026;-68
2023/06/01 02:40:11;;;;;;;3.53;3.00;;;;;;;;;;5051494;28;20040;-67
2023/06/01 02:42:38;;;;;;;2.85;2.50;;;;;;;;;;5036969;28;20465;-68
2023/06/01 02:45:07;;;;;;;3.53;2.25;;;;;;;;;;5018876;28;20112;-67
2023/06/01 02:47:33;;;;;;;3.78;2.40;;;;;;;;;;5036400;28;20048;-68
2023/06/01 02:49:58;;;;;;;4.95;2.45;;;;;;;;;;5036409;28;20461;-68
2023/06/01 02:52:35;;;;;;;2.42;2.22;;;;;;;;;;5091772;22;20049;-72
2023/06/01 02:55:01;;;;;;;2.75;2.42;;;;;;;;;;5073702;28;20040;-74
2023/06/01 02:57:49;;;;;;;2.38;2.10;;;;;;;;;;5088634;22;20053;-66
2023/06/01 03:00:17;;;;;;;2.47;2.28;;;;;;;;;;5057849;28;20495;-69
2023/06/01 03:02:47;;;;;;;3.15;1.98;;;;;;;;;;5057982;28;20537;-67
2023/06/01 03:05:14;;;;;;;2.33;2.15;;;;;;;;;;5075792;28;20032;-68
2023/06/01 03:07:46;;;;;;;2.38;2.17;;;;;;;;;;5057722;28;20017;-66
2023/06/01 03:10:23;;;;;;;2.55;2.35;;;;;;;;;;5057891;28;20055;-66
2023/06/01 03:13:02;;;;;;;2.47;2.28;;;;;;;;;;5091317;28;20081;-66
2023/06/01 03:15:28;;;;;;;2.80;2.10;;;;;;;;;;5091402;28;20123;-65
2023/06/01 03:17:53;;;;;;;2.72;2.50;;;;;;;;;;5091003;28;20039;-65
2023/06/01 03:20:19;;;;;;;2.13;2.03;;;;;;;;;;5058091;28;20029;-65
2023/06/01 03:22:45;;;;;;;3.00;2.25;;;;;;;;;;5057379;28;20029;-64
2023/06/01 03:25:12;;;;;;;3.42;2.28;;;;;;;;;;5075350;28;20415;-64
2023/06/01 03:27:41;;;;;;;2.60;1.88;;;;;;;;;;5090864;28;20036;-64
2023/06/01 03:30:11;;;;;;;2.95;2.17;;;;;;;;;;5090902;28;20052;-66
2023/06/01 03:32:37;;;;;;;1.90;1.75;;;;;;;;;;5057103;28;20396;-63
2023/06/01 03:35:07;;;;;;;3.50;2.00;;;;;;;;;;5057977;28;20101;-63
2023/06/01 03:37:34;;;;;;;2.33;2.13;;;;;;;;;;5057143;28;20409;-63
2023/06/01 03:40:01;;;;;;;4.00;2.28;;;;;;;;;;5057322;28;20029;-64
2023/06/01 03:42:30;;;;;;;2.05;1.85;;;;;;;;;;5090924;28;20044;-66
2023/06/01 03:44:55;;;;;;;2.83;2.42;;;;;;;;;;5074812;28;20031;-66
2023/06/01 03:47:21;;;;;;;2.22;2.03;;;;;;;;;;5056264;28;20491;-69
2023/06/01 03:49:46;;;;;;;2.40;2.20;;;;;;;;;;5091217;28;20535;-69
2023/06/01 03:52:14;;;;;;;3.83;2.25;;;;;;;;;;5041153;28;20085;-68
2023/06/01 03:54:40;;;;;;;2.08;1.98;;;;;;;;;;5074812;28;20093;-69
2023/06/01 03:57:15;;;;;;;6.22;2.45;;;;;;;;;;5090136;28;20044;-69
2023/06/01 03:59:41;;;;;;;2.90;2.10;;;;;;;;;;5056941;28;20020;-69
2023/06/01 04:02:09;;;;;;;2.88;1.92;;;;;;;;;;5074253;28;20384;-64
2023/06/01 04:04:35;;;;;;;2.22;2.03;;;;;;;;;;5056525;28;20086;-64
2023/06/01 04:07:03;;;;;;;2.75;2.53;;;;;;;;;;5056515;28;20086;-64
2023/06/01 04:09:31;;;;;;;2.50;2.17;;;;;;;;;;5074500;28;20020;-62
2023/06/01 04:11:57;;;;;;;2.45;2.05;;;;;;;;;;5089170;28;20028;-61
2023/06/01 04:14:23;;;;;;;2.75;2.40;;;;;;;;;;5074488;28;20033;-64
2023/06/01 04:16:48;;;;;;;3.80;2.38;;;;;;;;;;5072195;28;20368;-62
2023/06/01 04:19:13;;;;;;;3.45;2.60;;;;;;;;;;5073324;28;20542;-63
2023/06/01 04:21:40;;;;;;;2.20;2.00;;;;;;;;;;5082737;28;20461;-63
2023/06/01 04:24:05;;;;;;;3.00;2.05;;;;;;;;;;5072322;28;20020;-66
2023/06/01 04:26:31;;;;;;;2.67;2.10;;;;;;;;;;5072803;28;20531;-67
2023/06/01 04:28:57;;;;;;;6.85;2.40;;;;;;;;;;5056190;28;20055;-70
2023/06/01 04:31:23;;;;;;;3.25;2.17;;;;;;;;;;5072347;28;20500;-70
2023/06/01 04:33:52;;;;;;;2.88;2.63;;;;;;;;;;5072830;28;20032;-70
2023/06/01 04:36:21;;;;;;;3.50;3.03;;;;;;;;;;5072968;28;20063;-69
2023/06/01 04:38:54;;;;;;;3.08;2.58;;;;;;;;;;5072594;28;20259;-69
2023/06/01 04:41:21;;;;;;;3.15;2.95;;;;;;;;;;5056348;28;20033;-69
2023/06/01 04:43:51;;;;;;;3.55;2.92;;;;;;;;;;5056139;28;20043;-69
2023/06/01 04:46:17;;;;;;;;;;;;;;;;;;5056396;28;20033;-69
2023/06/01 04:48:44;;;;;;;4.63;2.55;;;;;;;;;;5056073;28;19920;-69
2023/06/01 04:51:10;;;;;;;2.72;2.30;;;;;;;;;;5073003;28;20103;-70
2023/06/01 04:53:35;;;;;;;3.70;3.10;;;;;;;;;;5073778;28;20428;-69
2023/06/01 04:56:01;;;;;;;2.45;2.25;;;;;;;;;;5072229;28;20369;-69
2023/06/01 04:58:28;;;;;;;4.15;2.60;;;;;;;;;;5089611;28;20079;-69
2023/06/01 05:00:54;;;;;;;4.30;2.70;;;;;;;;;;5054940;28;20048;-69
2023/06/01 05:03:19;;;;;;;3.33;3.05;;;;;;;;;;5034513;28;20029;-69
2023/06/01 05:05:45;;;;;;;3.95;3.63;;;;;;;;;;5069442;28;20063;-71
2023/06/01 05:08:10;;;;;;;4.35;3.53;;;;;;;;;;5052158;28;20036;-71
2023/06/01 05:10:37;;;;;;;6.40;3.58;;;;;;;;;;5070224;28;20058;-70
2023/06/01 05:13:03;;;;;;;5.43;3.78;;;;;;;;;;5051644;28;20120;-71
2023/06/01 05:15:30;;;;;;;13.38;6.38;;;;;;;;;;5035428;28;20116;-71
2023/06/01 05:17:56;;;;;;;16.30;6.88;;;;;;;;;;5055158;28;20472;-72
2023/06/01 05:20:21;;;;;;;24.75;8.95;;;;;;;;;;5060301;28;20028;-72
2023/06/01 05:22:52;;;;;;;17.23;7.05;;;;;;;;;;5061542;28;20032;-71
2023/06/01 05:25:18;;;;;;;15.23;7.18;;;;;;;;;;5079306;28;20033;-72
2023/06/01 05:27:43;;;;;;;16.05;7.22;;;;;;;;;;5079129;28;20055;-71
2023/06/01 05:30:09;;;;;;;20.45;7.70;;;;;;;;;;5078411;28;20480;-71
2023/06/01 05:32:34;;;;;;;13.35;6.55;;;;;;;;;;5058967;28;20167;-71
2023/06/01 05:35:09;;;;;;;11.73;6.22;;;;;;;;;;5077302;28;20024;-72
2023/06/01 05:37:36;;;;;;;16.25;6.32;;;;;;;;;;5053111;28;20033;-72
2023/06/01 05:40:03;;;;;;;10.98;6.43;;;;;;;;;;5077456;28;20052;-72
2023/06/01 05:42:28;;;;;;;14.55;7.57;;;;;;;;;;5058996;28;20073;-72
2023/06/01 05:44:54;;;;;;;13.98;6.53;;;;;;;;;;5072985;28;20111;-73
2023/06/01 05:47:19;;;;;;;10.73;5.75;;;;;;;;;;5076456;28;20352;-72
2023/06/01 05:49:45;;;;;;;8.80;5.13;;;;;;;;;;5077555;28;20021;-72
2023/06/01 05:52:13;;;;;;;10.57;6.15;;;;;;;;;;5077905;28;20496;-72
2023/06/01 05:54:38;;;;;;;9.20;5.50;;;;;;;;;;5079926;28;20039;-72
2023/06/01 05:57:06;;;;;;;11.45;6.93;;;;;;;;;;5078575;28;20404;-72
2023/06/01 05:59:33;;;;;;;11.93;6.47;;;;;;;;;;5077074;28;20117;-71
2023/06/01 06:01:59;;;;;;;12.13;6.68;;;;;;;;;;5060977;28;20021;-72
2023/06/01 06:04:25;;;;;;;11.65;5.57;;;;;;;;;;5077013;28;20461;-72
2023/06/01 06:06:50;;;;;;;10.15;5.82;;;;;;;;;;5076923;28;20035;-72
2023/06/01 06:09:15;;;;;;;12.50;6.47;;;;;;;;;;5076585;28;20024;-72
2023/06/01 06:11:41;;;;;;;11.00;6.32;;;;;;;;;;5078117;28;20039;-72
2023/06/01 06:14:06;;;;;;;12.30;6.45;;;;;;;;;;5078517;28;20111;-72
2023/06/01 06:16:32;;;;;;;11.65;5.50;;;;;;;;;;5078897;28;20111;-72
2023/06/01 06:18:57;;;;;;;9.73;5.40;;;;;;;;;;5078738;28;20016;-72
2023/06/01 06:21:22;;;;;;;11.77;6.47;;;;;;;;;;5077748;28;20025;-72
2023/06/01 06:23:49;;;;;;;11.98;5.72;;;;;;;;;;5077404;28;20025;-72
2023/06/01 06:26:14;;;;;;;14.85;5.85;;;;;;;;;;5078034;28;20037;-71
2023/06/01 06:28:39;;;;;;;15.45;7.38;;;;;;;;;;5077586;28;20069;-72
2023/06/01 06:31:04;;;;;;;12.13;6.35;;;;;;;;;;5074367;28;20024;-72
2023/06/01 06:33:40;;;;;;;17.27;6.90;;;;;;;;;;5075902;28;20061;-72
2023/06/01 06:36:05;;;;;;;13.57;5.95;;;;;;;;;;5075975;28;20025;-72
2023/06/01 06:38:31;;;;;;;13.43;6.93;;;;;;;;;;5074686;28;20408;-72
2023/06/01 06:40:57;;;;;;;14.00;7.28;;;;;;;;;;5075909;28;20109;-72
2023/06/01 06:43:22;;;;;;;17.00;7.60;;;;;;;;;;5075835;28;20036;-72
2023/06/01 06:45:47;;;;;;;17.75;7.07;;;;;;;;;;5074564;28;20044;-72
2023/06/01 06:48:13;;;;;;;19.83;7.95;;;;;;;;;;5074463;28;20040;-72
2023/06/01 06:50:40;;;;;;;15.63;7.07;;;;;;;;;;5075676;28;20064;-72
2023/06/01 06:53:06;;;;;;;17.98;7.60;;;;;;;;;;5075600;28;20052;-72
2023/06/01 06:55:31;;;;;;;14.45;6.65;;;;;;;;;;5075605;28;20051;-72
2023/06/01 06:57:56;;;;;;;15.48;7.03;;;;;;;;;;5074168;28;20082;-72
2023/06/01 07:00:23;;;;;;;15.93;6.95;;;;;;;;;;5075544;28;20389;-72
2023/06/01 07:02:48;;;;;;;11.43;6.38;;;;;;;;;;5075557;28;20512;-72
2023/06/01 07:05:13;;;;;;;10.20;5.05;;;;;;;;;;5075531;28;20032;-72
2023/06/01 07:07:40;;;;;;;10.02;5.70;;;;;;;;;;5075447;28;20028;-72
2023/06/01 07:10:06;;;;;;;13.57;5.95;;;;;;;;;;5075365;28;20528;-72
2023/06/01 07:12:31;;;;;;;14.35;6.15;;;;;;;;;;5073544;28;20124;-72
2023/06/01 07:14:56;;;;;;;13.10;7.90;;;;;;;;;;5075333;28;20028;-72
2023/06/01 07:17:22;;;;;;;17.30;7.30;;;;;;;;;;5074042;28;20032;-72
2023/06/01 07:19:47;;;;;;;9.95;5.40;;;;;;;;;;5075392;28;20025;-72
2023/06/01 07:22:13;;;;;;;12.50;5.15;;;;;;;;;;5087583;22;20056;-72
2023/06/01 07:24:38;;;;;;;11.45;6.40;;;;;;;;;;5109805;22;20087;-72
2023/06/01 07:27:05;;;;;;;11.30;5.22;;;;;;;;;;5092970;23;20086;-72
2023/06/01 07:29:30;;;;;;;10.25;5.35;;;;;;;;;;5077129;28;20059;-73
2023/06/01 07:31:56;;;;;;;9.18;5.35;;;;;;;;;;5077041;28;20475;-72
2023/06/01 07:34:21;;;;;;;9.82;4.65;;;;;;;;;;5076908;28;20021;-72
2023/06/01 07:36:47;;;;;;;10.40;4.75;;;;;;;;;;5076979;28;20467;-72
2023/06/01 07:39:12;;;;;;;13.85;5.97;;;;;;;;;;5094926;28;20028;-72
2023/06/01 07:41:39;;;;;;;12.02;5.25;;;;;;;;;;5094683;28;20383;-72
2023/06/01 07:44:05;;;;;;;10.50;5.15;;;;;;;;;;5094881;28;20036;-72
2023/06/01 07:46:30;;;;;;;11.20;4.88;;;;;;;;;;5076625;28;20038;-72
2023/06/01 07:48:56;;;;;;;11.45;4.97;;;;;;;;;;5076770;28;20032;-72
2023/06/01 07:51:22;;;;;;;12.60;5.95;;;;;;;;;;5094815;28;20043;-72
2023/06/01 07:53:47;;;;;;;11.07;5.35;;;;;;;;;;5059837;28;20036;-73
2023/06/01 07:56:12;;;;;;;10.60;5.60;;;;;;;;;;5094641;28;20032;-73
2023/06/01 07:58:38;;;;;;;9.23;4.85;;;;;;;;;;5094649;28;20013;-73
2023/06/01 08:01:04;;;;;;;6.13;3.70;;;;;;;;;;5076682;28;20487;-73
2023/06/01 08:03:29;;;;;;;7.43;3.50;;;;;;;;;;5094476;28;20028;-73
2023/06/01 08:05:57;;;;;;;7.70;4.20;;;;;;;;;;5094419;28;20027;-73
2023/06/01 08:08:25;;;;;;;10.73;4.95;;;;;;;;;;5094727;28;20069;-72
2023/06/01 08:10:51;;;;;;;11.65;5.20;;;;;;;;;;5094445;28;20060;-72
2023/06/01 08:13:18;;;;;;;11.02;4.95;;;;;;;;;;5094467;28;20050;-72
2023/06/01 08:15:47;;;;;;;2.65;2.42;;;;;;;;;;5076458;28;20032;-72
2023/06/01 08:18:12;;;;;;;5.25;2.42;;;;;;;;;;5094641;28;20019;-72
2023/06/01 08:20:38;;;;;;;3.20;2.45;;;;;;;;;;5094260;28;20032;-73
2023/06/01 08:23:03;;;;;;;3.17;2.28;;;;;;;;;;5076145;28;20063;-72
2023/06/01 08:25:28;;;;;;;3.72;2.35;;;;;;;;;;5094091;28;20510;-72
2023/06/01 08:27:54;;;;;;;2.47;1.92;;;;;;;;;;5094159;28;20083;-72
2023/06/01 08:30:19;;;;;;;4.57;2.20;;;;;;;;;;5094063;28;20031;-72
2023/06/01 08:32:45;;;;;;;2.75;2.40;;;;;;;;;;5093941;28;20043;-72
2023/06/01 08:35:10;;;;;;;4.38;2.60;;;;;;;;;;5093894;28;20464;-72
2023/06/01 08:37:37;;;;;;;4.00;2.50;;;;;;;;;;5093910;28;20028;-72
2023/06/01 08:40:09;;;;;;;3.88;2.45;;;;;;;;;;5093930;28;20039;-73
2023/06/01 08:42:38;;;;;;;4.93;2.15;;;;;;;;;;5093824;28;20141;-72
2023/06/01 08:45:04;;;;;;;2.03;1.90;;;;;;;;;;5075877;28;20028;-73
2023/06/01 08:47:31;;;;;;;2.97;2.20;;;;;;;;;;5093632;28;20057;-72
2023/06/01 08:49:57;;;;;;;2.88;2.22;;;;;;;;;;5075675;28;20043;-73
2023/06/01 08:52:27;;;;;;;2.80;2.58;;;;;;;;;;5093628;28;20021;-72
2023/06/01 08:54:53;;;;;;;5.28;2.63;;;;;;;;;;5093023;28;20468;-72
2023/06/01 08:57:19;;;;;;;3.97;2.67;;;;;;;;;;5093637;28;20020;-72
2023/06/01 08:59:45;;;;;;;3.63;2.42;;;;;;;;;;5093518;28;20082;-73
2023/06/01 09:02:10;;;;;;;2.60;2.40;;;;;;;;;;5075405;28;20036;-72
2023/06/01 09:04:38;;;;;;;5.60;3.03;;;;;;;;;;5093574;28;20028;-73
2023/06/01 09:07:04;;;;;;;7.63;3.30;;;;;;;;;;5075492;28;20132;-72
2023/06/01 09:09:30;;;;;;;4.70;2.20;;;;;;;;;;5075343;28;20028;-72
2023/06/01 09:12:13;;;;;;;3.25;2.20;;;;;;;;;;5093424;28;20028;-72
2023/06/01 09:14:39;;;;;;;2.97;2.40;;;;;;;;;;5075366;28;20101;-71
2023/06/01 09:17:04;;;;;;;5.68;2.90;;;;;;;;;;5058563;28;20464;-72
2023/06/01 09:19:45;;;;;;;4.72;2.53;;;;;;;;;;5093322;28;20418;-72
2023/06/01 09:22:10;;;;;;;;;;;;;;;;;;5093781;28;20460;-72
2023/06/01 09:24:35;;;;;;;3.90;2.00;;;;;;;;;;5093323;28;19954;-72
2023/06/01 09:27:01;;;;;;;5.93;2.78;;;;;;;;;;5071893;28;20032;-72
2023/06/01 09:29:26;;;;;;;4.32;2.60;;;;;;;;;;5073077;28;20407;-72
2023/06/01 09:31:51;;;;;;;5.82;2.53;;;;;;;;;;5071847;28;20043;-72
2023/06/01 09:34:19;;;;;;;4.78;2.90;;;;;;;;;;5072125;28;20025;-72
2023/06/01 09:36:44;;;;;;;5.22;2.78;;;;;;;;;;5073017;28;20025;-72
2023/06/01 09:39:13;;;;;;;4.45;2.33;;;;;;;;;;5072963;28;20362;-71
2023/06/01 09:41:49;;;;;;;5.55;2.70;;;;;;;;;;5071946;28;20051;-72
2023/06/01 09:44:22;;;;;;;6.72;3.58;;;;;;;;;;5072959;28;20424;-72
2023/06/01 09:46:48;;;;;;;5.88;2.90;;;;;;;;;;5072921;28;20430;-72
2023/06/01 09:49:27;;;;;;;6.22;3.30;;;;;;;;;;5071756;28;20111;-71
2023/06/01 09:52:14;;;;;;;5.65;2.92;;;;;;;;;;5072830;28;20078;-72
2023/06/01 09:54:47;;;;;;;8.45;3.75;;;;;;;;;;5072805;28;20074;-72
2023/06/01 09:57:12;;;;;;;6.40;3.97;;;;;;;;;;5054855;28;20400;-71
2023/06/01 09:59:42;;;;;;;5.88;3.42;;;;;;;;;;5072799;28;20016;-72
2023/06/01 10:02:11;;;;;;;8.32;3.08;;;;;;;;;;5072778;28;20380;-72
2023/06/01 10:04:38;;;;;;;4.95;3.40;;;;;;;;;;5072911;28;20113;-72
2023/06/01 10:07:05;;;;;;;12.43;3.67;;;;;;;;;;5075346;28;20040;-72
2023/06/01 10:09:31;;;;;;;7.90;3.25;;;;;;;;;;5076500;28;20033;-72
2023/06/01 10:11:56;;;;;;;6.05;3.25;;;;;;;;;;5076430;28;20029;-72
2023/06/01 10:14:23;;;;;;;7.60;4.07;;;;;;;;;;5076313;28;20024;-72
2023/06/01 10:16:52;;;;;;;4.07;3.35;;;;;;;;;;5076293;28;20082;-72
2023/06/01 10:19:18;;;;;;;5.40;2.60;;;;;;;;;;5076257;28;20032;-72
2023/06/01 10:21:45;;;;;;;8.98;3.90;;;;;;;;;;5075022;28;20017;-72
2023/06/01 10:24:11;;;;;;;12.95;3.92;;;;;;;;;;5076130;28;20028;-72
2023/06/01 10:26:41;;;;;;;7.18;3.40;;;;;;;;;;5074685;28;20032;-72
2023/06/01 10:29:08;;;;;;;7.35;3.67;;;;;;;;;;5076133;28;20039;-72
2023/06/01 10:31:36;;;;;;;5.15;3.42;;;;;;;;;;5074864;28;20033;-72
2023/06/01 10:34:01;;;;;;;4.70;3.13;;;;;;;;;;5075945;28;20032;-72
2023/06/01 10:37:05;;;;;;;5.03;3.33;;;;;;;;;;5075923;28;20357;-71
2023/06/01 10:39:31;;;;;;;5.30;3.20;;;;;;;;;;5053719;28;20025;-72
2023/06/01 10:41:57;;;;;;;7.35;3.00;;;;;;;;;;5036977;28;20080;-72
2023/06/01 10:44:38;;;;;;;4.75;2.83;;;;;;;;;;5063947;28;20112;-72
2023/06/01 10:47:03;;;;;;;;;;;;;;;;;;5074921;28;20052;-72
2023/06/01 10:49:47;;;;;;;7.37;2.57;;;;;;;;;;5074439;28;20363;-71
2023/06/01 10:52:27;;;;;;;4.35;2.85;;;;;;;;;;5075703;28;20282;-71
2023/06/01 10:54:53;;;;;;;6.97;2.88;;;;;;;;;;5075639;28;20028;-71
2023/06/01 10:57:24;;;;;;;5.40;3.20;;;;;;;;;;5074371;28;20476;-72
2023/06/01 11:00:08;;;;;;;13.32;3.20;;;;;;;;;;5075614;28;20029;-71
2023/06/01 11:02:33;;;;;;;5.57;2.88;;;;;;;;;;5075554;28;20048;-71
2023/06/01 11:05:20;;;;;;;4.20;2.58;;;;;;;;;;5075546;28;20107;-72
2023/06/01 11:07:45;;;;;;;3.97;2.35;;;;;;;;;;5075300;28;20029;-72
2023/06/01 11:10:10;;;;;;;3.67;2.33;;;;;;;;;;5074162;28;20012;-72
2023/06/01 11:12:55;;;;;;;5.55;2.78;;;;;;;;;;5074028;28;20035;-71
2023/06/01 11:15:21;;;;;;;6.07;2.70;;;;;;;;;;5057340;28;20490;-72
2023/06/01 11:17:47;;;;;;;3.90;2.97;;;;;;;;;;5074518;28;20498;-72
2023/06/01 11:20:20;;;;;;;3.78;2.55;;;;;;;;;;5075295;28;20060;-72
2023/06/01 11:22:47;;;;;;;4.78;2.72;;;;;;;;;;5075226;28;20032;-72
2023/06/01 11:25:13;;;;;;;5.95;2.53;;;;;;;;;;5075212;28;20037;-72
2023/06/01 11:27:42;;;;;;;3.88;2.55;;;;;;;;;;5073706;28;20470;-72
2023/06/01 11:30:08;;;;;;;7.13;2.60;;;;;;;;;;5073943;28;20031;-72
2023/06/01 11:32:36;;;;;;;8.00;2.88;;;;;;;;;;5074897;28;20091;-72
2023/06/01 11:35:18;;;;;;;4.07;2.83;;;;;;;;;;5073724;28;20587;-71
2023/06/01 11:37:43;;;;;;;4.10;2.92;;;;;;;;;;5074915;28;20027;-72
2023/06/01 11:40:10;;;;;;;6.88;2.92;;;;;;;;;;5074765;28;20016;-72
2023/06/01 11:42:36;;;;;;;9.52;2.63;;;;;;;;;;5073580;28;20029;-72
2023/06/01 11:45:01;;;;;;;4.05;3.00;;;;;;;;;;5073493;28;20028;-72
2023/06/01 11:47:30;;;;;;;5.30;2.90;;;;;;;;;;5074565;28;20534;-72
2023/06/01 11:49:56;;;;;;;4.47;2.58;;;;;;;;;;5074637;28;20492;-72
2023/06/01 11:52:21;;;;;;;2.65;2.45;;;;;;;;;;5090556;22;20142;-72
2023/06/01 11:54:47;;;;;;;3.55;2.70;;;;;;;;;;5137127;22;20060;-71
2023/06/01 11:57:13;;;;;;;3.63;2.80;;;;;;;;;;5093687;22;20056;-71
2023/06/01 11:59:42;;;;;;;4.78;2.38;;;;;;;;;;5090153;28;20056;-71
2023/06/01 12:02:26;;;;;;;2.88;2.50;;;;;;;;;;5074392;28;20051;-71
2023/06/01 12:04:58;;;;;;;6.28;2.03;;;;;;;;;;5074356;28;20025;-71
2023/06/01 12:07:24;;;;;;;2.42;2.22;;;;;;;;;;5074282;28;20039;-71
2023/06/01 12:09:56;;;;;;;4.00;2.70;;;;;;;;;;5039598;28;20066;-71
2023/06/01 12:12:24;;;;;;;6.72;2.80;;;;;;;;;;5074093;28;20039;-71
2023/06/01 12:14:51;;;;;;;5.00;3.13;;;;;;;;;;5073810;28;20036;-71
2023/06/01 12:17:16;;;;;;;3.40;2.45;;;;;;;;;;5074101;28;20029;-71
2023/06/01 12:19:46;;;;;;;4.60;2.72;;;;;;;;;;5073936;28;20027;-71
2023/06/01 12:22:11;;;;;;;2.50;2.17;;;;;;;;;;5056199;28;20033;-72
2023/06/01 12:24:36;;;;;;;5.28;2.22;;;;;;;;;;5073923;28;20032;-71
2023/06/01 12:27:12;;;;;;;6.60;2.78;;;;;;;;;;5073706;28;20029;-71
2023/06/01 12:29:38;;;;;;;4.72;2.38;;;;;;;;;;5072849;28;20082;-71
2023/06/01 12:32:04;;;;;;;2.97;2.65;;;;;;;;;;5073836;28;20078;-72
2023/06/01 12:34:29;;;;;;;4.13;2.10;;;;;;;;;;5073581;28;20135;-72
2023/06/01 12:36:55;;;;;;;2.05;1.85;;;;;;;;;;5073878;28;20032;-72
2023/06/01 12:39:36;;;;;;;3.00;2.30;;;;;;;;;;5073677;28;20024;-71
2023/06/01 12:42:02;;;;;;;3.28;2.65;;;;;;;;;;5073572;28;20099;-71
2023/06/01 12:44:27;;;;;;;5.45;2.75;;;;;;;;;;5055571;28;20115;-71
2023/06/01 12:46:57;;;;;;;4.45;2.30;;;;;;;;;;5055579;28;20115;-71
2023/06/01 12:49:23;;;;;;;4.45;2.22;;;;;;;;;;5073566;28;20021;-71
2023/06/01 12:51:49;;;;;;;3.88;2.25;;;;;;;;;;5055689;28;20036;-71
2023/06/01 12:54:15;;;;;;;5.05;2.13;;;;;;;;;;5073397;28;20039;-71
2023/06/01 12:56:41;;;;;;;4.88;2.65;;;;;;;;;;5055545;28;20036;-71
2023/06/01 12:59:06;;;;;;;3.05;1.65;;;;;;;;;;5073313;28;20595;-71
2023/06/01 13:01:31;;;;;;;2.80;2.22;;;;;;;;;;5073395;28;20491;-72
2023/06/01 13:03:57;;;;;;;4.97;1.98;;;;;;;;;;5073890;28;20029;-72
2023/06/01 13:06:23;;;;;;;4.15;1.90;;;;;;;;;;5073833;28;20040;-72
2023/06/01 13:08:48;;;;;;;3.75;2.13;;;;;;;;;;5073536;28;20028;-74
2023/06/01 13:11:14;;;;;;;5.60;2.75;;;;;;;;;;5073538;28;20056;-73
2023/06/01 13:13:40;;;;;;;2.60;1.73;;;;;;;;;;5055505;28;20027;-71
2023/06/01 13:16:06;;;;;;;3.70;2.00;;;;;;;;;;5073469;28;20033;-72
2023/06/01 13:18:32;;;;;;;4.97;2.47;;;;;;;;;;5073163;28;20078;-72
2023/06/01 13:20:58;;;;;;;2.92;1.77;;;;;;;;;;5072847;28;20096;-74
2023/06/01 13:23:24;;;;;;;3.25;1.63;;;;;;;;;;5072987;28;20472;-73
2023/06/01 13:25:49;;;;;;;2.05;1.85;;;;;;;;;;5073084;28;20032;-71
2023/06/01 13:28:15;;;;;;;5.88;1.88;;;;;;;;;;5072847;28;20029;-73
2023/06/01 13:30:42;;;;;;;2.92;1.75;;;;;;;;;;5055194;28;20479;-73
2023/06/01 13:33:07;;;;;;;6.72;3.55;;;;;;;;;;5073099;28;20028;-73
2023/06/01 13:35:32;;;;;;;5.05;2.15;;;;;;;;;;5055006;28;20074;-71
2023/06/01 13:37:58;;;;;;;4.38;2.28;;;;;;;;;;5072595;28;20031;-71
2023/06/01 13:40:24;;;;;;;3.05;1.80;;;;;;;;;;5056027;28;20032;-71
2023/06/01 13:42:50;;;;;;;2.50;1.95;;;;;;;;;;5058784;28;20036;-71
2023/06/01 13:45:16;;;;;;;4.05;2.20;;;;;;;;;;5076860;28;20024;-70
2023/06/01 13:47:41;;;;;;;3.83;2.10;;;;;;;;;;5076615;28;20033;-70
2023/06/01 13:50:07;;;;;;;7.97;2.55;;;;;;;;;;5076827;28;20081;-73
2023/06/01 13:52:33;;;;;;;4.47;2.22;;;;;;;;;;5076722;28;20074;-73
2023/06/01 13:54:58;;;;;;;5.30;3.38;;;;;;;;;;5076890;28;20517;-72
2023/06/01 13:57:24;;;;;;;3.30;2.40;;;;;;;;;;5076907;28;20037;-72
2023/06/01 13:59:49;;;;;;;2.60;2.15;;;;;;;;;;5076588;28;20029;-73
2023/06/01 14:02:15;;;;;;;8.15;2.25;;;;;;;;;;5076592;28;20059;-72
2023/06/01 14:04:41;;;;;;;5.53;2.10;;;;;;;;;;5058427;28;20068;-72
2023/06/01 14:07:06;;;;;;;3.50;2.22;;;;;;;;;;5076411;28;20025;-71
2023/06/01 14:09:32;;;;;;;2.25;1.98;;;;;;;;;;5075893;28;20039;-72
2023/06/01 14:11:57;;;;;;;2.17;1.77;;;;;;;;;;5076154;28;20024;-73
2023/06/01 14:14:22;;;;;;;2.55;2.20;;;;;;;;;;5076374;28;20127;-73
2023/06/01 14:16:48;;;;;;;5.45;2.28;;;;;;;;;;5076589;28;20028;-70
2023/06/01 14:19:14;;;;;;;2.67;1.90;;;;;;;;;;5075976;28;20049;-70
2023/06/01 14:21:39;;;;;;;5.47;2.10;;;;;;;;;;5076071;28;20025;-72
2023/06/01 14:24:05;;;;;;;3.25;2.05;;;;;;;;;;5076462;28;20013;-73
2023/06/01 14:26:30;;;;;;;3.80;2.20;;;;;;;;;;5058113;28;20090;-73
2023/06/01 14:28:55;;;;;;;3.00;2.17;;;;;;;;;;5058365;28;20024;-73
2023/06/01 14:31:21;;;;;;;6.65;2.00;;;;;;;;;;5057774;28;20024;-73
2023/06/01 14:33:47;;;;;;;2.63;2.00;;;;;;;;;;5057845;28;20040;-73
2023/06/01 14:36:12;;;;;;;2.30;2.08;;;;;;;;;;5075927;28;20016;-73
2023/06/01 14:38:38;;;;;;;2.17;1.77;;;;;;;;;;5075784;28;20031;-73
2023/06/01 14:41:03;;;;;;;2.10;1.90;;;;;;;;;;5075555;28;20082;-73
2023/06/01 14:43:29;;;;;;;4.28;1.77;;;;;;;;;;5058044;28;20036;-73